createdAt,value
2023-02-19T00:04:31.070Z,37.40
2023-02-19T00:09:37.306Z,37.40
2023-02-19T00:14:40.674Z,37.30
2023-02-19T00:19:44.819Z,37.40
2023-02-19T00:24:49.243Z,37.30
2023-02-19T00:29:52.892Z,37.30
2023-02-19T00:34:57.111Z,37.10
2023-02-19T00:39:59.940Z,37.10
2023-02-19T00:45:05.799Z,37.40
2023-02-19T00:50:10.382Z,37.20
2023-02-19T00:55:13.233Z,37.10
2023-02-19T01:00:16.383Z,37.00
2023-02-19T01:05:22.335Z,37.00
2023-02-19T01:10:25.186Z,36.90
2023-02-19T01:15:28.092Z,36.90
2023-02-19T01:20:32.620Z,36.70
2023-02-19T01:25:35.576Z,36.80
2023-02-19T01:30:39.376Z,36.80
2023-02-19T01:35:44.683Z,36.90
2023-02-19T01:40:55.520Z,36.90
2023-02-19T01:45:58.406Z,36.70
2023-02-19T01:51:08.745Z,36.70
2023-02-19T01:56:12.723Z,36.70
2023-02-19T02:01:15.695Z,36.60
2023-02-19T02:06:24.614Z,36.60
2023-02-19T02:11:27.874Z,36.60
2023-02-19T02:16:35.753Z,36.70
2023-02-19T02:21:51.439Z,36.50
2023-02-19T02:27:10.119Z,36.70
2023-02-19T02:32:19.029Z,36.50
2023-02-19T02:37:23.740Z,36.50
2023-02-19T02:42:34.095Z,36.30
2023-02-19T02:47:46.075Z,36.30
2023-02-19T02:53:10.060Z,36.30
2023-02-19T02:58:14.084Z,36.20
2023-02-19T03:03:21.175Z,36.20
2023-02-19T03:08:27.945Z,36.30
2023-02-19T03:13:53.099Z,36.30
2023-02-19T03:19:17.574Z,36.20
2023-02-19T03:24:40.702Z,36.20
2023-02-19T03:29:45.984Z,36.10
2023-02-19T03:34:55.715Z,36.10
2023-02-19T03:39:58.616Z,36.20
2023-02-19T03:45:20.142Z,36.10
2023-02-19T03:50:26.073Z,35.90
2023-02-19T03:55:33.200Z,35.90
2023-02-19T04:00:40.411Z,35.90
2023-02-19T04:05:48.382Z,35.90
2023-02-19T04:11:01.011Z,35.90
2023-02-19T04:16:13.559Z,35.90
2023-02-19T04:21:20.359Z,35.80
2023-02-19T04:26:26.176Z,35.80
2023-02-19T04:31:29.527Z,35.90
2023-02-19T04:36:34.503Z,35.90
2023-02-19T04:41:37.304Z,35.70
2023-02-19T04:46:43.113Z,35.80
2023-02-19T04:51:47.391Z,35.70
2023-02-19T04:56:52.157Z,35.70
2023-02-19T05:01:55.162Z,35.60
2023-02-19T05:06:59.369Z,35.60
2023-02-19T05:12:02.250Z,35.90
2023-02-19T05:17:11.753Z,35.90
2023-02-19T05:22:15.900Z,35.90
2023-02-19T05:27:18.790Z,35.90
2023-02-19T05:32:21.780Z,35.90
2023-02-19T05:37:25.942Z,35.80
2023-02-19T05:42:32.159Z,35.70
2023-02-19T05:47:35.126Z,36.00
2023-02-19T05:52:39.265Z,35.70
2023-02-19T05:57:43.768Z,35.70
2023-02-19T06:02:46.821Z,35.70
2023-02-19T06:07:51.382Z,35.60
2023-02-19T06:12:54.670Z,35.80
2023-02-19T06:17:59.653Z,35.80
2023-02-19T06:23:03.821Z,35.70
2023-02-19T06:28:06.669Z,35.90
2023-02-19T06:33:09.493Z,35.80
2023-02-19T06:38:13.681Z,35.80
2023-02-19T06:43:16.516Z,35.80
2023-02-19T06:48:19.344Z,35.60
2023-02-19T06:53:24.010Z,35.80
2023-02-19T06:58:27.215Z,35.60
2023-02-19T07:03:30.022Z,35.80
2023-02-19T07:08:34.159Z,35.70
2023-02-19T07:13:37.042Z,35.80
2023-02-19T07:18:40.350Z,35.40
2023-02-19T07:23:45.108Z,35.40
2023-02-19T07:28:59.020Z,35.50
2023-02-19T07:34:02.902Z,35.50
2023-02-19T07:39:09.192Z,35.50
2023-02-19T07:44:17.998Z,35.40
2023-02-19T07:49:20.982Z,35.50
2023-02-19T07:54:25.806Z,35.50
2023-02-19T07:59:28.728Z,35.40
2023-02-19T08:04:31.561Z,35.30
2023-02-19T08:09:36.010Z,35.50
2023-02-19T08:14:39.016Z,35.30
2023-02-19T08:19:41.946Z,35.30
2023-02-19T08:24:49.715Z,35.50
2023-02-19T08:29:52.496Z,35.60
2023-02-19T08:34:55.292Z,35.50
2023-02-19T08:39:59.410Z,35.70
2023-02-19T08:45:02.196Z,35.70
2023-02-19T08:50:05.915Z,35.60
2023-02-19T08:55:10.140Z,35.60
2023-02-19T09:00:14.705Z,35.80
2023-02-19T09:05:29.382Z,35.80
2023-02-19T09:10:33.570Z,35.80
2023-02-19T09:15:36.410Z,35.60
2023-02-19T09:20:39.259Z,35.80
2023-02-19T09:25:43.509Z,35.90
2023-02-19T09:30:46.336Z,35.80
2023-02-19T09:35:49.229Z,35.90
2023-02-19T09:40:53.413Z,36.00
2023-02-19T09:46:03.413Z,35.80
2023-02-19T09:51:06.362Z,36.00
2023-02-19T09:56:10.743Z,36.10
2023-02-19T10:01:14.072Z,36.00
2023-02-19T10:06:21.728Z,36.00
2023-02-19T10:11:27.363Z,36.10
2023-02-19T10:16:30.370Z,35.90
2023-02-19T10:21:33.399Z,36.10
2023-02-19T10:26:37.578Z,36.20
2023-02-19T10:31:41.070Z,36.10
2023-02-19T10:36:45.510Z,36.10
2023-02-19T10:41:50.699Z,36.10
2023-02-19T10:46:56.356Z,36.30
2023-02-19T10:52:02.533Z,36.20
2023-02-19T10:57:29.817Z,36.20
2023-02-19T11:02:32.849Z,36.50
2023-02-19T11:07:37.049Z,36.10
2023-02-19T11:12:41.183Z,36.30
2023-02-19T11:17:44.314Z,36.20
2023-02-19T11:22:49.170Z,36.20
2023-02-19T11:27:58.247Z,36.30
2023-02-19T11:33:27.184Z,36.30
2023-02-19T11:38:30.376Z,36.40
2023-02-19T11:43:45.434Z,36.20
2023-02-19T11:48:55.423Z,36.30
2023-02-19T11:54:07.852Z,36.30
2023-02-19T11:59:15.057Z,36.30
2023-02-19T12:04:52.690Z,36.30
2023-02-19T12:10:05.959Z,36.30
2023-02-19T12:15:28.483Z,36.40
2023-02-19T12:20:35.764Z,36.40
2023-02-19T12:26:01.401Z,36.40
2023-02-19T12:31:35.098Z,36.50
2023-02-19T12:36:45.171Z,36.40
2023-02-19T12:41:51.160Z,36.40
2023-02-19T12:46:58.755Z,36.40
2023-02-19T12:52:03.231Z,36.40
2023-02-19T12:57:10.124Z,36.50
2023-02-19T13:02:17.542Z,36.50
2023-02-19T13:07:24.173Z,36.50
2023-02-19T13:12:30.348Z,36.60
2023-02-19T13:17:39.224Z,36.50
2023-02-19T13:23:04.579Z,36.70
2023-02-19T13:28:32.873Z,36.60
2023-02-19T13:33:46.021Z,36.60
2023-02-19T13:38:50.071Z,36.60
2023-02-19T13:43:58.722Z,36.70
2023-02-19T13:49:35.814Z,36.70
2023-02-19T13:54:40.221Z,36.60
2023-02-19T13:59:43.024Z,36.70
2023-02-19T14:04:51.756Z,36.70
2023-02-19T14:09:55.264Z,36.60
2023-02-19T14:14:58.628Z,36.70
2023-02-19T14:20:05.024Z,36.80
2023-02-19T14:25:15.722Z,36.60
2023-02-19T14:30:18.922Z,36.50
2023-02-19T14:35:25.273Z,36.60
2023-02-19T14:40:30.263Z,36.60
2023-02-19T14:45:38.813Z,36.60
2023-02-19T14:50:43.090Z,36.70
2023-02-19T14:55:47.346Z,36.60
2023-02-19T15:00:50.419Z,36.60
2023-02-19T15:05:58.747Z,36.80
2023-02-19T15:11:03.100Z,36.80
2023-02-19T15:16:06.990Z,36.90
2023-02-19T15:21:41.621Z,36.60
2023-02-19T15:26:50.383Z,36.80
2023-02-19T15:31:54.507Z,36.60
2023-02-19T15:37:01.768Z,36.30
2023-02-19T15:42:06.314Z,34.70
2023-02-19T15:47:14.639Z,34.20
2023-02-19T15:52:28.511Z,34.10
2023-02-19T15:57:33.715Z,34.90
2023-02-19T16:02:37.175Z,35.30
2023-02-19T16:07:43.593Z,36.00
2023-02-19T16:12:57.038Z,36.10
2023-02-19T16:18:00.353Z,36.10
2023-02-19T16:23:06.926Z,36.20
2023-02-19T16:28:14.630Z,35.50
2023-02-19T16:33:21.771Z,35.60
2023-02-19T16:38:26.021Z,36.40
2023-02-19T16:43:31.688Z,36.50
2023-02-19T16:48:35.946Z,36.40
2023-02-19T16:53:40.455Z,36.80
2023-02-19T16:58:43.361Z,36.90
2023-02-19T17:03:47.731Z,36.80
2023-02-19T17:08:52.471Z,36.90
2023-02-19T17:13:55.250Z,36.90
2023-02-19T17:18:58.794Z,36.90
2023-02-19T17:24:03.876Z,37.10
2023-02-19T17:29:08.590Z,37.00
2023-02-19T17:34:11.465Z,37.10
2023-02-19T17:39:16.388Z,37.20
2023-02-19T17:44:19.510Z,37.20
2023-02-19T17:49:22.312Z,37.20
2023-02-19T17:54:26.485Z,37.40
2023-02-19T17:59:29.286Z,37.30
2023-02-19T18:04:32.130Z,37.50
2023-02-19T18:09:36.365Z,37.60
2023-02-19T18:14:39.367Z,37.30
2023-02-19T18:19:44.440Z,37.30
2023-02-19T18:24:49.865Z,37.30
2023-02-19T18:29:57.822Z,37.50
2023-02-19T18:35:01.062Z,37.40
2023-02-19T18:40:06.409Z,37.50
2023-02-19T18:45:11.670Z,37.40
2023-02-19T18:50:14.648Z,37.60
2023-02-19T18:55:18.903Z,37.40
2023-02-19T19:00:25.476Z,37.40
2023-02-19T19:05:28.605Z,37.50
2023-02-19T19:10:33.185Z,37.40
2023-02-19T19:15:36.379Z,37.20
2023-02-19T19:20:44.614Z,37.40
2023-02-19T19:25:49.045Z,37.30
2023-02-19T19:30:51.916Z,37.40
2023-02-19T19:35:54.926Z,37.30
2023-02-19T19:40:59.327Z,37.40
2023-02-19T19:46:10.532Z,37.30
2023-02-19T19:51:13.783Z,37.40
2023-02-19T19:56:22.260Z,37.20
2023-02-19T20:01:25.145Z,37.30
2023-02-19T20:06:29.301Z,37.40
2023-02-19T20:11:33.475Z,37.40
2023-02-19T20:16:36.299Z,37.40
2023-02-19T20:21:39.088Z,37.40
2023-02-19T20:26:45.840Z,37.30
2023-02-19T20:31:49.639Z,37.30
2023-02-19T20:36:52.970Z,37.30
2023-02-19T20:41:58.250Z,37.30
2023-02-19T20:47:01.572Z,37.40
2023-02-19T20:52:07.486Z,37.30
2023-02-19T20:57:12.637Z,37.10
2023-02-19T21:02:18.911Z,37.20
2023-02-19T21:07:22.066Z,37.20
2023-02-19T21:12:27.169Z,37.20
2023-02-19T21:17:30.032Z,37.30
2023-02-19T21:22:32.881Z,37.10
2023-02-19T21:27:37.485Z,37.20
2023-02-19T21:32:40.348Z,37.10
2023-02-19T21:37:44.539Z,37.10
2023-02-19T21:42:48.706Z,37.10
2023-02-19T21:47:52.058Z,37.10
2023-02-19T21:52:55.253Z,37.10
2023-02-19T21:57:59.734Z,37.20
2023-02-19T22:03:02.626Z,37.20
2023-02-19T22:08:05.673Z,37.00
2023-02-19T22:13:10.265Z,37.00
2023-02-19T22:18:13.174Z,37.00
2023-02-19T22:23:16.094Z,37.00
2023-02-19T22:28:20.321Z,36.80
2023-02-19T22:33:23.459Z,36.90
2023-02-19T22:38:26.485Z,36.80
2023-02-19T22:43:33.427Z,36.90
2023-02-19T22:48:36.587Z,36.70
2023-02-19T22:53:40.066Z,36.80
2023-02-19T22:58:45.777Z,36.90
2023-02-19T23:03:50.464Z,36.60
2023-02-19T23:08:54.005Z,36.90
2023-02-19T23:13:58.722Z,36.80
2023-02-19T23:19:01.883Z,36.80
2023-02-19T23:24:05.838Z,36.70
2023-02-19T23:29:10.246Z,36.70
2023-02-19T23:34:13.196Z,36.60
2023-02-19T23:39:18.573Z,36.50
2023-02-19T23:44:24.372Z,36.60
2023-02-19T23:49:27.180Z,36.50
2023-02-19T23:54:29.966Z,36.50
2023-02-19T23:59:34.091Z,36.60
